Akebono — JG5644 — position and weather

sailwx.info

Track history (hours):
 
Tides and Currents Weather Stations Pressure Air Temp Water Temp Dewpoint Dewpoint Depression Visibility Wind Speed Wind Dir Waves Ship Positions

Akebono

Last reported at 2015-Jul-05 08:33 UTC. Time now 2015-Jul-05 12:56 UTC.
Position N 35°29' E 139°43'.

Length 33 m; draft 4.4 m.

Type: Tug. MMSI: 431000233.

Date/timePositionNaut miles runAvg speedWind from/ knotsBaromVisibWave heightAir tempDewpointWater temp
2015-Jul-05 08:33N 35°29' E 139°43'2 1.6
2015-Jul-05 07:33N 35°30' E 139°44'3 3.0
2015-Jul-05 06:34N 35°27' E 139°43'4 3.8
2015-Jul-05 05:34N 35°27' E 139°38'0 0.1
2015-Jul-05 04:33N 35°27' E 139°38'0 0.0
2015-Jul-05 03:33N 35°27' E 139°38'0 0.0
2015-Jul-05 02:33N 35°27' E 139°38'5 5.3
2015-Jul-05 01:33N 35°30' E 139°44'2 1.8
2015-Jul-05 00:33N 35°31' E 139°46'1 1.4
2015-Jul-04 23:33N 35°30' E 139°47'8 7.6
2015-Jul-04 22:33N 35°27' E 139°38'0 0.1
2015-Jul-04 21:33N 35°27' E 139°39'0 0.0
2015-Jul-04 20:33N 35°27' E 139°39'0 0.0
2015-Jul-04 08:33N 35°27' E 139°38'2 2.4
2015-Jul-04 07:33N 35°27' E 139°41'1 0.7
2015-Jul-04 06:33N 35°27' E 139°42'0 0.3
2015-Jul-04 05:33N 35°27' E 139°43'4 4.0
2015-Jul-04 04:33N 35°29' E 139°47'3 2.8
2015-Jul-04 03:33N 35°26' E 139°47'3 3.2
2015-Jul-04 02:34N 35°27' E 139°43'0 0.0
2015-Jul-04 01:33N 35°27' E 139°43'5 4.5
2015-Jul-04 00:33N 35°24' E 139°38'3 3.0
2015-Jul-03 23:33N 35°24' E 139°42'4 4.2
2015-Jul-03 22:33N 35°27' E 139°38'0 0.0
2015-Jul-02 22:33N 35°27' E 139°38'2 1.7
2015-Jul-02 21:34N 35°27' E 139°41'1 0.8
2015-Jul-02 20:34N 35°27' E 139°41'1 0.6
2015-Jul-02 19:34N 35°26' E 139°42'0 0.0
2015-Jul-02 18:34N 35°26' E 139°42'2 2.4
2015-Jul-02 17:34N 35°28' E 139°44'3 2.9
2015-Jul-02 16:34N 35°30' E 139°46'1 1.2
2015-Jul-02 15:33N 35°29' E 139°45'0 0.0
2015-Jul-02 14:33N 35°29' E 139°45'4 3.8
2015-Jul-02 13:34N 35°27' E 139°42'1 0.6
2015-Jul-02 12:33N 35°26' E 139°42'3 3.1
2015-Jul-02 11:33N 35°27' E 139°38'2 2.5
2015-Jul-02 10:33N 35°27' E 139°41'2 1.6
2015-Jul-02 09:33N 35°27' E 139°39'0 0.2
2015-Jul-02 08:33N 35°27' E 139°39'1 0.7
2015-Jul-02 07:33N 35°27' E 139°38'0 0.0
2015-Jul-02 06:33N 35°27' E 139°38'0 0.0
2015-Jul-02 05:33N 35°27' E 139°38'0 0.0
2015-Jul-02 04:33N 35°27' E 139°38'0 0.0
2015-Jul-02 03:33N 35°27' E 139°38'0 0.0
2015-Jul-02 02:33N 35°27' E 139°38'0 0.0
2015-Jul-02 01:33N 35°27' E 139°38'0 0.0
2015-Jul-02 00:33N 35°27' E 139°38'0 0.0
2015-Jul-01 23:33N 35°27' E 139°38'2 2.5
2015-Jul-01 22:33N 35°27' E 139°41'3 2.5
2015-Jul-01 21:33N 35°27' E 139°38'0 0.1
2015-Jul-01 20:33N 35°27' E 139°38'0 0.0
2015-Jul-01 19:33N 35°27' E 139°38'0 0.0
2015-Jul-01 10:33N 35°27' E 139°38'0 0.0
2015-Jul-01 09:33N 35°27' E 139°38'0 0.3
2015-Jul-01 08:34N 35°28' E 139°39'2 1.6
2015-Jul-01 07:33N 35°27' E 139°41'0 0.1
2015-Jul-01 06:33N 35°27' E 139°40'2 1.7
2015-Jul-01 05:33N 35°27' E 139°38'0 0.0
2015-Jul-01 04:33N 35°27' E 139°38'0 0.0
2015-Jul-01 03:32N 35°27' E 139°38'0 0.0
2015-Jul-01 02:33N 35°27' E 139°38'0 0.0
2015-Jul-01 01:33N 35°27' E 139°38'0 0.0
2015-Jul-01 00:33N 35°27' E 139°38'0 0.0
2015-Jun-30 23:33N 35°27' E 139°38'0 0.0
2015-Jun-30 22:33N 35°27' E 139°38'0 0.0
2015-Jun-29 23:19N 35°27' E 139°38'2 3.2
2015-Jun-29 22:33N 35°27' E 139°41'1 1.0
2015-Jun-29 21:33N 35°26' E 139°42'1 0.7
2015-Jun-29 20:33N 35°26' E 139°42'0 0.0
2015-Jun-29 19:33N 35°26' E 139°42'0 0.0
2015-Jun-29 18:33N 35°26' E 139°42'0 0.0
2015-Jun-29 17:33N 35°26' E 139°42'0 0.0
2015-Jun-29 16:33N 35°26' E 139°42'1 0.8
2015-Jun-29 15:33N 35°26' E 139°41'0 0.2
2015-Jun-29 14:34N 35°26' E 139°41'1 0.7
2015-Jun-29 13:34N 35°26' E 139°42'0 0.0
2015-Jun-29 12:34N 35°26' E 139°42'0 0.0
2015-Jun-29 11:34N 35°26' E 139°42'1 1.2
2015-Jun-29 10:34N 35°27' E 139°40'2 2.2
2015-Jun-29 09:34N 35°27' E 139°43'2 2.3
2015-Jun-29 08:33N 35°25' E 139°42'1 1.4
2015-Jun-29 07:34N 35°25' E 139°41'3 2.7
2015-Jun-29 06:33N 35°27' E 139°38'0 0.0
2015-Jun-29 05:33N 35°27' E 139°38'0 0.0
2015-Jun-29 04:33N 35°27' E 139°38'0 0.0
2015-Jun-29 03:33N 35°27' E 139°38'0 0.0
2015-Jun-29 02:34N 35°27' E 139°38'0 0.0
2015-Jun-29 01:33N 35°27' E 139°38'0 0.0
2015-Jun-29 00:33N 35°27' E 139°38'0 0.0
2015-Jun-28 23:33N 35°27' E 139°38'0 0.0
2015-Jun-28 22:33N 35°27' E 139°38'0 0.0
2015-Jun-28 21:33N 35°27' E 139°38'0 0.0
2015-Jun-28 20:34N 35°27' E 139°38'0 0.0
2015-Jun-28 07:12N 35°27' E 139°38'0 0.0
2015-Jun-28 06:34N 35°27' E 139°38'0 0.0
2015-Jun-28 05:34N 35°27' E 139°38'0 0.0
2015-Jun-28 04:34N 35°27' E 139°38'5 4.8
2015-Jun-28 03:34N 35°28' E 139°44'1 0.6
2015-Jun-28 02:33N 35°28' E 139°45'1 1.0
2015-Jun-28 01:33N 35°28' E 139°44'0 0.0
2015-Jun-28 00:33N 35°28' E 139°44'0 0.1
2015-Jun-27 23:33N 35°28' E 139°44'0 0.0
2015-Jun-27 22:33N 35°28' E 139°44'2 2.2
2015-Jun-27 21:33N 35°28' E 139°41'2 1.5
2015-Jun-27 20:33N 35°27' E 139°42'1 0.0
2015-Jun-26 08:33N 35°27' E 139°40'1 0.8
2015-Jun-26 07:33N 35°27' E 139°41'1 0.9
2015-Jun-26 06:33N 35°28' E 139°41'2 1.7
2015-Jun-26 05:33N 35°27' E 139°38'0 0.0
2015-Jun-26 04:33N 35°27' E 139°38'0 0.0
2015-Jun-26 03:33N 35°27' E 139°38'0 0.0
2015-Jun-26 02:33N 35°27' E 139°38'0 0.0
2015-Jun-26 01:33N 35°27' E 139°38'0 0.0
2015-Jun-26 00:33N 35°27' E 139°38'0 0.0
2015-Jun-25 23:33N 35°27' E 139°38'2 2.5
2015-Jun-25 22:33N 35°27' E 139°41'2 2.0
2015-Jun-25 21:34N 35°25' E 139°43'4 4.0
2015-Jun-25 20:33N 35°27' E 139°38'0 0.0
2015-Jun-25 09:31N 35°27' E 139°38'  
Track history (hours):
 
Tides and Currents Weather Stations Pressure Air Temp Water Temp Dewpoint Dewpoint Depression Visibility Wind Speed Wind Dir Waves Ship Positions

Akebono

Last reported at 2015-Jul-05 08:33 UTC. Time now 2015-Jul-05 12:56 UTC.
Position N 35°29' E 139°43'.

Length 33 m; draft 4.4 m.

Type: Tug. MMSI: 431000233.

Date/timePositionNaut miles runAvg speedWind from/ knotsBaromVisibWave heightAir tempDewpointWater temp
2015-Jul-05 08:33N 35°29' E 139°43'2 1.6
2015-Jul-05 07:33N 35°30' E 139°44'3 3.0
2015-Jul-05 06:34N 35°27' E 139°43'4 3.8
2015-Jul-05 05:34N 35°27' E 139°38'0 0.1
2015-Jul-05 04:33N 35°27' E 139°38'0 0.0
2015-Jul-05 03:33N 35°27' E 139°38'0 0.0
2015-Jul-05 02:33N 35°27' E 139°38'5 5.3
2015-Jul-05 01:33N 35°30' E 139°44'2 1.8
2015-Jul-05 00:33N 35°31' E 139°46'1 1.4
2015-Jul-04 23:33N 35°30' E 139°47'8 7.6
2015-Jul-04 22:33N 35°27' E 139°38'0 0.1
2015-Jul-04 21:33N 35°27' E 139°39'0 0.0
2015-Jul-04 20:33N 35°27' E 139°39'0 0.0
2015-Jul-04 08:33N 35°27' E 139°38'2 2.4
2015-Jul-04 07:33N 35°27' E 139°41'1 0.7
2015-Jul-04 06:33N 35°27' E 139°42'0 0.3
2015-Jul-04 05:33N 35°27' E 139°43'4 4.0
2015-Jul-04 04:33N 35°29' E 139°47'3 2.8
2015-Jul-04 03:33N 35°26' E 139°47'3 3.2
2015-Jul-04 02:34N 35°27' E 139°43'0 0.0
2015-Jul-04 01:33N 35°27' E 139°43'5 4.5
2015-Jul-04 00:33N 35°24' E 139°38'3 3.0
2015-Jul-03 23:33N 35°24' E 139°42'4 4.2
2015-Jul-03 22:33N 35°27' E 139°38'0 0.0
2015-Jul-02 22:33N 35°27' E 139°38'2 1.7
2015-Jul-02 21:34N 35°27' E 139°41'1 0.8
2015-Jul-02 20:34N 35°27' E 139°41'1 0.6
2015-Jul-02 19:34N 35°26' E 139°42'0 0.0
2015-Jul-02 18:34N 35°26' E 139°42'2 2.4
2015-Jul-02 17:34N 35°28' E 139°44'3 2.9
2015-Jul-02 16:34N 35°30' E 139°46'1 1.2
2015-Jul-02 15:33N 35°29' E 139°45'0 0.0
2015-Jul-02 14:33N 35°29' E 139°45'4 3.8
2015-Jul-02 13:34N 35°27' E 139°42'1 0.6
2015-Jul-02 12:33N 35°26' E 139°42'3 3.1
2015-Jul-02 11:33N 35°27' E 139°38'2 2.5
2015-Jul-02 10:33N 35°27' E 139°41'2 1.6
2015-Jul-02 09:33N 35°27' E 139°39'0 0.2
2015-Jul-02 08:33N 35°27' E 139°39'1 0.7
2015-Jul-02 07:33N 35°27' E 139°38'0 0.0
2015-Jul-02 06:33N 35°27' E 139°38'0 0.0
2015-Jul-02 05:33N 35°27' E 139°38'0 0.0
2015-Jul-02 04:33N 35°27' E 139°38'0 0.0
2015-Jul-02 03:33N 35°27' E 139°38'0 0.0
2015-Jul-02 02:33N 35°27' E 139°38'0 0.0
2015-Jul-02 01:33N 35°27' E 139°38'0 0.0
2015-Jul-02 00:33N 35°27' E 139°38'0 0.0
2015-Jul-01 23:33N 35°27' E 139°38'2 2.5
2015-Jul-01 22:33N 35°27' E 139°41'3 2.5
2015-Jul-01 21:33N 35°27' E 139°38'0 0.1
2015-Jul-01 20:33N 35°27' E 139°38'0 0.0
2015-Jul-01 19:33N 35°27' E 139°38'0 0.0
2015-Jul-01 10:33N 35°27' E 139°38'0 0.0
2015-Jul-01 09:33N 35°27' E 139°38'0 0.3
2015-Jul-01 08:34N 35°28' E 139°39'2 1.6
2015-Jul-01 07:33N 35°27' E 139°41'0 0.1
2015-Jul-01 06:33N 35°27' E 139°40'2 1.7
2015-Jul-01 05:33N 35°27' E 139°38'0 0.0
2015-Jul-01 04:33N 35°27' E 139°38'0 0.0
2015-Jul-01 03:32N 35°27' E 139°38'0 0.0
2015-Jul-01 02:33N 35°27' E 139°38'0 0.0
2015-Jul-01 01:33N 35°27' E 139°38'0 0.0
2015-Jul-01 00:33N 35°27' E 139°38'0 0.0
2015-Jun-30 23:33N 35°27' E 139°38'0 0.0
2015-Jun-30 22:33N 35°27' E 139°38'0 0.0
2015-Jun-29 23:19N 35°27' E 139°38'2 3.2
2015-Jun-29 22:33N 35°27' E 139°41'1 1.0
2015-Jun-29 21:33N 35°26' E 139°42'1 0.7
2015-Jun-29 20:33N 35°26' E 139°42'0 0.0
2015-Jun-29 19:33N 35°26' E 139°42'0 0.0
2015-Jun-29 18:33N 35°26' E 139°42'0 0.0
2015-Jun-29 17:33N 35°26' E 139°42'0 0.0
2015-Jun-29 16:33N 35°26' E 139°42'1 0.8
2015-Jun-29 15:33N 35°26' E 139°41'0 0.2
2015-Jun-29 14:34N 35°26' E 139°41'1 0.7
2015-Jun-29 13:34N 35°26' E 139°42'0 0.0
2015-Jun-29 12:34N 35°26' E 139°42'0 0.0
2015-Jun-29 11:34N 35°26' E 139°42'1 1.2
2015-Jun-29 10:34N 35°27' E 139°40'2 2.2
2015-Jun-29 09:34N 35°27' E 139°43'2 2.3
2015-Jun-29 08:33N 35°25' E 139°42'1 1.4
2015-Jun-29 07:34N 35°25' E 139°41'3 2.7
2015-Jun-29 06:33N 35°27' E 139°38'0 0.0
2015-Jun-29 05:33N 35°27' E 139°38'0 0.0
2015-Jun-29 04:33N 35°27' E 139°38'0 0.0
2015-Jun-29 03:33N 35°27' E 139°38'0 0.0
2015-Jun-29 02:34N 35°27' E 139°38'0 0.0
2015-Jun-29 01:33N 35°27' E 139°38'0 0.0
2015-Jun-29 00:33N 35°27' E 139°38'0 0.0
2015-Jun-28 23:33N 35°27' E 139°38'0 0.0
2015-Jun-28 22:33N 35°27' E 139°38'0 0.0
2015-Jun-28 21:33N 35°27' E 139°38'0 0.0
2015-Jun-28 20:34N 35°27' E 139°38'0 0.0
2015-Jun-28 07:12N 35°27' E 139°38'0 0.0
2015-Jun-28 06:34N 35°27' E 139°38'0 0.0
2015-Jun-28 05:34N 35°27' E 139°38'0 0.0
2015-Jun-28 04:34N 35°27' E 139°38'5 4.8
2015-Jun-28 03:34N 35°28' E 139°44'1 0.6
2015-Jun-28 02:33N 35°28' E 139°45'1 1.0
2015-Jun-28 01:33N 35°28' E 139°44'0 0.0
2015-Jun-28 00:33N 35°28' E 139°44'0 0.1
2015-Jun-27 23:33N 35°28' E 139°44'0 0.0
2015-Jun-27 22:33N 35°28' E 139°44'2 2.2
2015-Jun-27 21:33N 35°28' E 139°41'2 1.5
2015-Jun-27 20:33N 35°27' E 139°42'1 0.0
2015-Jun-26 08:33N 35°27' E 139°40'1 0.8
2015-Jun-26 07:33N 35°27' E 139°41'1 0.9
2015-Jun-26 06:33N 35°28' E 139°41'2 1.7
2015-Jun-26 05:33N 35°27' E 139°38'0 0.0
2015-Jun-26 04:33N 35°27' E 139°38'0 0.0
2015-Jun-26 03:33N 35°27' E 139°38'0 0.0
2015-Jun-26 02:33N 35°27' E 139°38'0 0.0
2015-Jun-26 01:33N 35°27' E 139°38'0 0.0
2015-Jun-26 00:33N 35°27' E 139°38'0 0.0
2015-Jun-25 23:33N 35°27' E 139°38'2 2.5
2015-Jun-25 22:33N 35°27' E 139°41'2 2.0
2015-Jun-25 21:34N 35°25' E 139°43'4 4.0
2015-Jun-25 20:33N 35°27' E 139°38'0 0.0
2015-Jun-25 09:31N 35°27' E 139°38'  

Dump ship's entire track history